Hauptseite
METAR-TAF:

METAR-TAF

Flughäfen :

Flughafen Bangkok-Don Mueang

Bangkok, Thailand

Breite: 13-54-45N, Länge: 100-36-24E, Höhe: 4 m

Beobachtung

Neuester Wetterbericht von vor 24 Minuten, um 10:30 UTC
Wind 8 kt aus Süd, variierte zwischen Südost und Süd/Südwest
Temperatur 36°C
Luftfeuchtigkeit 53%
Luftdruck 1006 hPa
Sichtweite: 9000 m
Leicht bewölkt in der Höhe von 2500 ft

METAR: VTBD 221030Z 17008KT 140V200 9000 FEW025 36/25 Q1006 NOSIG

Zeit: 17:54 (10:54 UTC)

Prognose

Neuester Wetterbericht von vor 5 Stunden und 54 Minuten, um 05:00 UTC
Gültige Prognose vom 22 um 06 UTC bis 23 um 12 UTC
Wind 10 kt aus Süd/Südwest
Sichtweite: 9000 m
Leicht bewölkt in der Höhe von 2000 ft
Übergehend zu
vom 22 um 20 UTC bis 22 um 22 UTC
Wind 5 kt aus Südost
Übergehend zu
vom 23 um 01 UTC bis 23 um 03 UTC
Wind 10 kt aus Süd/Südwest

TAF: VTBD 220500Z 2206/2312 21010KT 9000 FEW020 BECMG 2220/2222 14005KT BECMG 2301/2303 20010KT

Wetterbeobachtungen und Prognosen von mehr als 4000 Flughäfen (METAR und TAF Bericht).

Die verfügbaren Stationen werden durch gelbe und rote Markierungen auf der Karte dargestellt.

Führen Sie die Maus auf sie, um den Namen der Station zu sehen.

Darauf klicken, um die Beobachtung von Wetterbeobachtungen und Prognosen zu sehen.

Um die Karte zu ändern : klicken Sie auf den grünen Tasten mit einem schwarzen Kreuz Zum Vergrößern, auf den grünen Button mit einem Gedankenstrich zu verkleinern, oder auf die grünen Pfeile für benachbarte Karten.


METAR-TAF: